• Join FlightAware (Why Join?)
  • Login
  • US Flag 
05:39PM EDT


 

Airport Tracker/Info


-or-


 

Live Flight TrackerFlight Track Log ✈ XOJ552 ✈ 11-May-2013 ✈ KLWB - KAPF

Flight Track Log - Related Links

Times and Time Zones

All times are in EDT time to prevent confusion due to time zone crossing. See the XOJ552 flight status page for this flight to view local times or setup timezone preferences in your user account.

Time Position Orientation Groundspeed Altitude Reporting Facility
EDT Latitude Longitude Course Direction KTS MPH feet Rate Location/Type
01:41PM 37.7878 -80.4822 222° Southwest 395 455 8,700  Level Washington Center
01:42PM 37.7203 -80.5014 193° South 308 354 13,200 4,380 Climbing Washington Center
01:43PM 37.8321 -80.4313 224° Southwest  Level FlightAware Approximate
01:43PM 37.6439 -80.5306 197° South 296 341 17,400  Level Washington Center
01:45PM 37.4567 -80.5883 194° South 306 352 26,000 2,640 Climbing Atlanta Center
01:46PM 37.3619 -80.6236 196° South 332 382 26,000  Level Atlanta Center
01:47PM 37.2628 -80.6542 194° South 355 409 26,000  Level Atlanta Center
01:48PM 37.1617 -80.6897 196° South 368 423 26,000 240 Level Atlanta Center
01:49PM 37.0728 -80.7247 197° South 378 435 26,500 1,440 Climbing Atlanta Center
01:50PM 36.9764 -80.7808 205° Southwest 378 435 28,900 1,440 Climbing Atlanta Center
01:51PM 36.8778 -80.8392 205° Southwest 390 449 29,400 1,800 Climbing Atlanta Center
01:52PM 36.7711 -80.9006 205° Southwest 395 455 32,600 2,280 Climbing Atlanta Center
01:53PM 36.6828 -80.9583 208° Southwest 381 438 34,000 660 Climbing Atlanta Center
01:54PM 36.5903 -81.0111 205° Southwest 370 426 34,000 1,320 Level Atlanta Center
01:55PM 36.5000 -81.0661 206° Southwest 364 419 36,700 2,400 Climbing Atlanta Center
01:56PM 36.4156 -81.1183 206° Southwest 345 397 38,900 1,200 Climbing Atlanta Center
01:57PM 36.3375 -81.1650 206° Southwest 340 391 39,100 540 Climbing Atlanta Center
01:58PM 36.2428 -81.2225 206° Southwest 356 410 40,000 780 Climbing Atlanta Center
01:59PM 36.1503 -81.2769 205° Southwest 369 425 40,700 600 Climbing Atlanta Center
02:00PM 36.0514 -81.3369 206° Southwest 386 444 41,300 600 Climbing Atlanta Center
02:01PM 35.9528 -81.3967 206° Southwest 392 451 42,000 600 Climbing Atlanta Center
02:02PM 35.8539 -81.4561 206° Southwest 397 457 42,600 660 Climbing Atlanta Center
02:03PM 35.7508 -81.5183 206° Southwest 397 457 43,400 720 Climbing Atlanta Center
02:04PM 35.6475 -81.5753 204° Southwest 402 463 44,100 540 Climbing Atlanta Center
02:05PM 35.5444 -81.6369 206° Southwest 402 463 44,500 420 Climbing Atlanta Center
02:06PM 35.4414 -81.6961 205° Southwest 402 463 45,000 240 Climbing Atlanta Center
02:07PM 35.3383 -81.7575 206° Southwest 407 468 45,000  Level Atlanta Center
02:08PM 35.2328 -81.8164 205° Southwest 414 476 45,000  Level Atlanta Center
02:09PM 35.1192 -81.8831 206° Southwest 420 483 45,000  Level Atlanta Center
02:10PM 35.0117 -81.9364 202° Southwest 420 483 45,000  Level Atlanta Center
02:11PM 34.9075 -81.9467 185° South 420 483 45,000  Level Atlanta Center
02:12PM 34.7911 -81.9697 189° South 420 483 45,000  Level Atlanta Center
02:13PM 34.6725 -81.9906 188° South 425 489 45,000  Level Atlanta Center
02:14PM 34.5561 -82.0108 188° South 425 489 45,000  Level Atlanta Center
02:15PM 34.4375 -82.0339 189° South 425 489 45,000  Level Atlanta Center
02:16PM 34.3208 -82.0544 188° South 425 489 45,000  Level Atlanta Center
02:17PM 34.2003 -82.0772 189° South 430 495 45,000  Level Atlanta Center
02:18PM 34.0836 -82.0950 187° South 430 495 45,000  Level Atlanta Center
02:19PM 33.9628 -82.1153 188° South 430 495 45,000  Level Atlanta Center
02:20PM 33.8422 -82.1356 188° South 430 495 45,000  Level Atlanta Center
02:21PM 33.7172 -82.1533 187° South 442 509 45,000  Level Atlanta Center
02:22PM 33.5919 -82.1486 178° South 448 516 45,000  Level Atlanta Center
02:23PM 33.4642 -82.1339 175° South 453 521 45,000  Level Atlanta Center
02:24PM 33.3347 -82.1194 175° South 465 535 45,000  Level Atlanta Center
02:25PM 33.2072 -82.1047 174° South 465 535 45,000  Level Atlanta Center
02:27PM 32.9803 -82.0778 174° South 455 524 45,000  Level Jacksonville Center
02:28PM 32.8528 -82.0642 175° South 467 537 45,000  Level Jacksonville Center
02:29PM 32.7233 -82.0506 175° South 467 537 45,000  Level Jacksonville Center
02:30PM 32.5936 -82.0369 175° South 467 537 45,000  Level Jacksonville Center
02:31PM 32.4661 -82.0208 174° South 467 537 45,000  Level Jacksonville Center
02:32PM 32.3514 -82.0097 175° South 455 524 45,000  Level Jacksonville Center
02:33PM 32.2092 -81.9964 175° South 467 537 45,000  Level Jacksonville Center
02:34PM 32.0797 -81.9806 174° South 467 537 45,000  Level Jacksonville Center
02:35PM 31.9647 -81.9717 176° South 462 532 45,000  Level Jacksonville Center
02:36PM 31.8272 -81.9831 184° South 457 526 45,000  Level Jacksonville Center
02:37PM 31.7125 -81.9939 185° South 457 526 45,000  Level Jacksonville Center
02:38PM 31.5747 -82.0072 185° South 462 532 45,000  Level Jacksonville Center
02:39PM 31.4475 -82.0233 186° South 462 532 45,000 -60 Level Jacksonville Center
02:40PM 31.3200 -82.0317 183° South 462 532 44,900  Descending Jacksonville Center
02:41PM 31.1928 -82.0425 184° South 462 532 45,000  Climbing Jacksonville Center
02:42PM 31.0656 -82.0558 185° South 462 532 45,000  Level Jacksonville Center
02:43PM 30.9403 -82.0642 183° South 462 532 45,000  Level Jacksonville Center
02:44PM 30.8150 -82.0775 185° South 462 532 45,000  Level Jacksonville Center
02:45PM 30.6858 -82.0906 185° South 462 532 45,000 -60 Level Jacksonville Center
02:46PM 30.5606 -82.1014 184° South 462 532 44,900  Descending Jacksonville Center
02:47PM 30.4478 -82.1047 181° South 456 525 45,000  Climbing Jacksonville Center
02:48PM 30.3228 -82.1297 190° South 461 531 45,000  Level Jacksonville Center
02:49PM 30.2061 -82.1764 199° South 455 524 45,000  Level Jacksonville Center
02:50PM 30.0894 -82.2228 199° South 449 517 45,000  Level Jacksonville Center
02:51PM 29.9747 -82.2764 202° Southwest 443 510 45,000  Level Jacksonville Center
02:52PM 29.8517 -82.2892 185° South 448 516 45,000  Level Jacksonville Center
02:53PM 29.7322 -82.2086 150° Southeast 420 483 45,000  Level Jacksonville Center
02:54PM 29.6275 -82.1256 145° Southeast 420 483 45,000  Level Jacksonville Center
02:55PM 29.5042 -82.1050 172° South 439 505 45,000  Level Jacksonville Center
02:56PM 29.3875 -82.1536 200° South 420 483 45,000  Level Jacksonville Center
02:57PM 29.3003 -82.2450 222° Southwest 411 473 45,000  Level Jacksonville Center
02:58PM 29.2131 -82.3431 224° Southwest 425 489 45,000  Level Jacksonville Center
02:59PM 29.1258 -82.4386 224° Southwest 431 496 45,000 -60 Level Jacksonville Center
03:00PM 29.0386 -82.5364 224° Southwest 442 509 44,900 -600 Descending Jacksonville Center
03:01PM 28.9511 -82.6269 222° Southwest 442 509 43,800 -1,200 Descending Jacksonville Center
03:02PM 28.8594 -82.7194 221° Southwest 442 509 42,600 -1,500 Descending Jacksonville Center
03:03PM 28.7425 -82.7672 200° South 442 509 40,900 -1,620 Descending Jacksonville Center
03:04PM 28.6194 -82.7767 184° South 431 496 39,400 -1,560 Descending Jacksonville Center
03:05PM 28.4881 -82.7864 184° South 453 521 37,800 -1,620 Descending Jacksonville Center
03:06PM 28.3586 -82.7911 182° South 469 540 36,200 -1,080 Descending Jacksonville Center
03:08PM 28.1506 -82.7992 182° South 451 519 35,000 -540 Descending Miami Center
03:09PM 28.0522 -82.8058 183° South 446 513 34,800 -660 Descending Miami Center
03:10PM 27.9125 -82.8078 181° South 451 519 33,700 -1,260 Descending Miami Center
03:11PM 27.7831 -82.8128 182° South 457 526 32,300 -1,680 Descending Miami Center
03:12PM 27.6450 -82.8219 183° South 465 535 30,400 -1,800 Descending Miami Center
03:13PM 27.5175 -82.8247 181° South 465 535 28,700 -1,680 Descending Miami Center
03:14PM 27.4006 -82.7764 160° South 456 525 27,100 -1,920 Descending Miami Center
03:15PM 27.3006 -82.7222 154° Southeast 440 506 24,900 -2,340 Descending Miami Center
03:16PM 27.1797 -82.6625 156° South 440 506 22,500 -2,280 Descending Miami Center
03:17PM 27.0778 -82.6083 155° Southeast 424 488 20,400 -2,100 Descending Miami Center
03:18PM 26.9817 -82.5572 155° Southeast 404 465 18,300 -2,100 Descending Miami Center
03:19PM 26.8856 -82.5058 155° Southeast 391 450 16,300 -2,040 Descending Miami Center
03:20PM 26.7894 -82.4569 156° South 391 450 14,300 -2,040 Descending Miami Center
03:21PM 26.6953 -82.4061 154° Southeast 384 442 12,300 -1,800 Descending Miami Center
03:22PM 26.6136 -82.3581 152° Southeast 361 415 10,800 -1,320 Descending Miami Center
03:23PM 26.5444 -82.3086 147° Southeast 326 375 9,700 -1,140 Descending Miami Center
03:24PM 26.4775 -82.2614 148° Southeast 298 343 8,600 -1,140 Descending Miami Center
03:25PM 26.4192 -82.2031 138° Southeast 286 329 7,500 -840 Descending Miami Center
03:26PM 26.3867 -82.1181 113° Southeast 273 314 7,000 -300 Descending Miami Center
03:27PM 26.3542 -82.0333 113° Southeast 280 322 7,000  Level Miami Center
03:28PM 26.3214 -81.9578 116° Southeast 284 327 7,000  Level Miami Center
03:30PM 26.1764 -81.8015 138° Southeast  Level Estimated
03:37PM 26.1524 -81.7756 66° East  Level Estimated
03:38PM 26.1524 -81.7756 66° East  Level Estimated
03:39PM 26.1524 -81.7756 66° East  Level Estimated
03:40PM 26.1524 -81.7756 66° East  Level Estimated
03:41PM 26.1524 -81.7756 66° East  Level Estimated
03:42PM 26.1524 -81.7756 66° East  Level Estimated